Time;durP1;ratioP1;P1;durP2;ratioP2;P2;SDS_P1;SDS_P2;PMS_P1;PMS_P2;Temp;Humidity;BMP_temperature;BMP_pressure;BME280_temperature;BME280_humidity;BME280_pressure;Samples;Min_cycle;Max_cycle;Signal;HPM_P1;HPM_P2
2021/12/19 00:00:51;;;;;;;17.93;6.07;;;;;;;5.60;100.00;102289.50;7392777;19;20411;-44
2021/12/19 00:03:37;;;;;;;10.57;5.27;;;;;;;5.57;100.00;102278.97;7402910;19;20863;-43
2021/12/19 00:08:50;;;;;;;11.80;5.07;;;;;;;5.62;100.00;102280.28;7398272;19;20901;-44
2021/12/19 00:11:20;;;;;;;20.87;6.30;;;;;;;5.58;100.00;102261.19;7392316;19;20419;-46
2021/12/19 00:13:53;;;;;;;12.57;4.33;;;;;;;5.60;100.00;102277.59;7397704;19;20392;-42
2021/12/19 00:16:23;;;;;;;19.33;5.20;;;;;;;5.57;100.00;102284.09;7391174;19;20415;-46
2021/12/19 00:18:53;;;;;;;10.60;5.03;;;;;;;5.57;100.00;102268.72;7398341;19;20455;-45
2021/12/19 00:21:23;;;;;;;17.53;6.30;;;;;;;5.56;100.00;102264.38;7391798;19;20880;-42
2021/12/19 00:23:53;;;;;;;18.23;6.07;;;;;;;5.53;100.00;102258.25;7398398;19;20392;-43
2021/12/19 00:26:23;;;;;;;20.07;5.87;;;;;;;5.45;100.00;102256.69;7391175;19;20404;-47
2021/12/19 00:28:56;;;;;;;12.60;4.67;;;;;;;5.49;100.00;102245.94;7398140;19;20392;-43
2021/12/19 00:31:25;;;;;;;20.77;6.07;;;;;;;5.55;100.00;102245.56;7392175;19;20490;-42
2021/12/19 00:33:55;;;;;;;12.77;6.17;;;;;;;5.54;100.00;102249.78;7396812;19;20463;-49
2021/12/19 00:36:25;;;;;;;23.10;7.77;;;;;;;5.54;100.00;102244.66;7391004;19;20410;-45
2021/12/19 00:38:55;;;;;;;18.33;6.13;;;;;;;5.53;100.00;102240.31;7397918;19;20380;-46
2021/12/19 00:41:25;;;;;;;20.67;6.27;;;;;;;5.58;100.00;102247.50;7391850;19;20410;-43
2021/12/19 00:44:07;;;;;;;20.07;7.27;;;;;;;5.60;100.00;102249.44;7403190;19;20405;-48
2021/12/19 00:46:43;;;;;;;20.00;6.60;;;;;;;5.58;100.00;102229.59;7400985;19;20468;-47
2021/12/19 00:49:14;;;;;;;22.00;7.53;;;;;;;5.62;100.00;102229.06;7404696;19;20387;-47
2021/12/19 00:51:43;;;;;;;20.90;6.30;;;;;;;5.64;100.00;102227.56;7399231;19;20904;-45
2021/12/19 00:54:13;;;;;;;22.93;6.30;;;;;;;5.67;100.00;102226.16;7403360;19;20392;-46
2021/12/19 00:56:45;;;;;;;20.80;6.73;;;;;;;5.61;100.00;102211.91;7397538;19;20486;-47
2021/12/19 00:59:18;;;;;;;18.23;6.40;;;;;;;5.63;100.00;102207.81;7404406;19;20396;-47
2021/12/19 01:01:48;;;;;;;14.47;6.50;;;;;;;5.65;100.00;102211.41;7403988;19;20426;-43
2021/12/19 01:04:20;;;;;;;21.20;7.67;;;;;;;5.65;100.00;102217.41;7404958;19;20387;-45
2021/12/19 01:06:50;;;;;;;20.67;6.13;;;;;;;5.63;100.00;102210.38;7402519;19;20448;-43
2021/12/19 01:09:20;;;;;;;20.63;7.07;;;;;;;5.67;100.00;102199.63;7397505;19;20388;-45
2021/12/19 01:11:49;;;;;;;22.80;6.93;;;;;;;5.66;100.00;102203.84;7403842;19;20406;-45
2021/12/19 01:14:22;;;;;;;16.30;6.90;;;;;;;5.68;100.00;102206.53;7401295;19;20404;-48
2021/12/19 01:16:51;;;;;;;18.67;6.47;;;;;;;5.71;100.00;102183.75;7401897;19;20482;-45
2021/12/19 01:19:22;;;;;;;25.57;5.13;;;;;;;5.67;100.00;102207.31;7397874;19;20459;-44
2021/12/19 01:21:52;;;;;;;25.10;7.83;;;;;;;5.75;100.00;102198.59;7403363;19;20379;-47
2021/12/19 01:24:22;;;;;;;21.63;9.47;;;;;;;5.76;100.00;102208.09;7398139;19;20394;-48
2021/12/19 01:26:51;;;;;;;19.90;6.87;;;;;;;5.80;100.00;102197.31;7402165;19;20696;-43
2021/12/19 01:29:23;;;;;;;38.03;13.03;;;;;;;5.81;100.00;102199.13;7397941;19;20899;-49
2021/12/19 01:31:53;;;;;;;25.97;7.43;;;;;;;5.77;100.00;102194.53;7403299;19;20393;-46
2021/12/19 01:34:22;;;;;;;22.33;7.53;;;;;;;5.77;100.00;102198.75;7396228;19;20472;-47
2021/12/19 01:36:52;;;;;;;28.03;9.57;;;;;;;5.83;100.00;102206.94;7401782;19;20951;-46
2021/12/19 01:39:21;;;;;;;15.97;5.53;;;;;;;5.69;100.00;102218.56;7397161;19;20464;-43
2021/12/19 01:41:52;;;;;;;22.50;6.43;;;;;;;5.77;100.00;102204.78;7402730;19;20898;-44
2021/12/19 01:44:24;;;;;;;20.47;6.47;;;;;;;5.79;100.00;102210.00;7397679;19;20396;-43
2021/12/19 01:46:55;;;;;;;18.40;6.37;;;;;;;5.79;100.00;102197.19;7401194;19;20417;-44
2021/12/19 01:49:25;;;;;;;15.70;6.40;;;;;;;5.81;100.00;102199.13;7396587;19;20443;-47
2021/12/19 01:51:54;;;;;;;18.27;7.23;;;;;;;5.77;100.00;102179.16;7402353;19;20472;-45
2021/12/19 01:54:24;;;;;;;16.60;5.67;;;;;;;5.79;100.00;102185.28;7393977;19;20385;-43
2021/12/19 01:56:54;;;;;;;21.53;6.47;;;;;;;5.78;100.00;102183.50;7405416;19;20424;-44
2021/12/19 01:59:26;;;;;;;24.97;7.07;;;;;;;5.78;100.00;102170.69;7396417;19;20385;-44
2021/12/19 02:01:57;;;;;;;24.87;5.27;;;;;;;5.81;100.00;102153.00;7402028;19;20401;-47
2021/12/19 02:04:30;;;;;;;23.20;5.40;;;;;;;5.74;100.00;102140.47;7396629;19;20415;-50
2021/12/19 02:07:00;;;;;;;16.63;6.13;;;;;;;5.73;100.00;102148.00;7400628;19;20473;-43
2021/12/19 02:09:30;;;;;;;16.37;5.70;;;;;;;5.75;100.00;102157.63;7395794;19;20398;-43
2021/12/19 02:12:00;;;;;;;15.40;5.03;;;;;;;5.77;100.00;102173.13;7400401;19;20426;-42
2021/12/19 02:14:32;;;;;;;15.70;5.27;;;;;;;5.81;100.00;102147.88;7395867;19;20376;-50
2021/12/19 02:17:02;;;;;;;26.97;5.87;;;;;;;5.75;100.00;102161.88;7400228;19;20443;-43
2021/12/19 02:19:32;;;;;;;15.93;4.53;;;;;;;5.75;100.00;102147.38;7395987;19;20384;-46
2021/12/19 02:22:04;;;;;;;23.63;5.90;;;;;;;5.73;100.00;102154.03;7401628;19;20399;-47
2021/12/19 02:24:34;;;;;;;29.10;5.80;;;;;;;5.77;100.00;102150.97;7396080;19;20436;-45
2021/12/19 02:27:04;;;;;;;17.27;5.90;;;;;;;5.81;100.00;102157.25;7399923;19;20491;-47
2021/12/19 02:29:33;;;;;;;26.97;6.50;;;;;;;5.83;100.00;102139.47;7396067;19;20395;-43
2021/12/19 02:32:04;;;;;;;14.73;4.70;;;;;;;5.75;100.00;102157.63;7401318;19;20393;-44
2021/12/19 02:34:40;;;;;;;25.10;6.03;;;;;;;5.75;100.00;102157.63;7395915;19;20410;-44
2021/12/19 02:37:33;;;;;;;82.33;5.90;;;;;;;5.72;100.00;102146.22;7399949;19;20417;-44
2021/12/19 02:40:24;;;;;;;16.40;5.57;;;;;;;5.71;100.00;102155.59;7395786;19;20406;-44
2021/12/19 02:48:18;;;;;;;15.30;5.90;;;;;;;5.70;100.00;102145.22;7399769;19;20740;-48
2021/12/19 02:50:51;;;;;;;13.10;4.20;;;;;;;5.65;100.00;102137.16;7395233;19;20408;-45
2021/12/19 02:53:31;;;;;;;14.23;5.17;;;;;;;5.64;100.00;102151.59;7400813;19;20395;-44
2021/12/19 02:56:02;;;;;;;12.93;4.70;;;;;;;5.68;100.00;102132.28;7396580;19;20439;-48
2021/12/19 02:58:31;;;;;;;15.87;5.47;;;;;;;5.70;100.00;102122.16;7399369;19;20445;-52
2021/12/19 03:01:02;;;;;;;18.90;5.23;;;;;;;5.76;100.00;102128.72;7394635;19;20706;-47
2021/12/19 03:03:32;;;;;;;13.13;4.40;;;;;;;5.74;100.00;102113.97;7400423;19;20641;-43
2021/12/19 03:06:02;;;;;;;19.33;5.20;;;;;;;5.73;100.00;102113.06;7394145;19;20864;-45
2021/12/19 03:08:35;;;;;;;18.90;5.43;;;;;;;5.71;100.00;102117.19;7398621;19;20483;-48
2021/12/19 03:19:16;;;;;;;17.67;5.47;;;;;;;5.70;100.00;102120.50;7399667;19;20403;-42
2021/12/19 03:21:46;;;;;;;17.80;6.00;;;;;;;5.78;100.00;102111.78;7399424;19;20417;-42
2021/12/19 03:24:18;;;;;;;16.30;5.93;;;;;;;5.73;100.00;102110.50;7399918;19;20848;-45
2021/12/19 03:26:47;;;;;;;17.47;5.40;;;;;;;5.73;100.00;102099.34;7398603;19;20902;-46
2021/12/19 03:29:17;;;;;;;18.23;6.70;;;;;;;5.68;100.00;102091.28;7399511;19;20388;-44
2021/12/19 03:31:46;;;;;;;18.63;6.43;;;;;;;5.67;100.00;102102.31;7399127;19;20407;-44
2021/12/19 03:34:16;;;;;;;13.80;3.77;;;;;;;5.66;100.00;102097.97;7399708;19;20658;-45
2021/12/19 03:36:46;;;;;;;9.60;3.33;;;;;;;5.72;100.00;102103.59;7396502;19;20895;-44
2021/12/19 03:39:26;;;;;;;8.30;3.50;;;;;;;5.72;100.00;102098.47;7399296;19;20395;-44
2021/12/19 03:41:57;;;;;;;6.07;2.37;;;;;;;5.67;100.00;102103.22;7398831;19;20466;-46
2021/12/19 03:44:27;;;;;;;11.20;2.80;;;;;;;5.66;100.00;102101.41;7393722;19;20643;-44
2021/12/19 03:46:56;;;;;;;7.70;2.30;;;;;;;5.69;100.00;102095.63;7397599;19;20415;-45
2021/12/19 03:49:26;;;;;;;3.20;1.60;;;;;;;5.58;100.00;102083.63;7393213;19;20451;-45
2021/12/19 03:51:55;;;;;;;8.90;2.37;;;;;;;5.57;100.00;102099.75;7402853;19;20398;-46
2021/12/19 03:54:27;;;;;;;3.90;2.20;;;;;;;5.51;100.00;102088.25;7392750;19;20864;-45
2021/12/19 03:56:57;;;;;;;4.80;2.27;;;;;;;5.54;100.00;102085.03;7396062;19;20430;-45
2021/12/19 03:59:27;;;;;;;8.83;1.70;;;;;;;5.49;100.00;102094.88;7393077;19;20388;-46
2021/12/19 04:01:57;;;;;;;7.70;2.40;;;;;;;5.54;100.00;102096.16;7398304;19;20402;-47
2021/12/19 04:04:26;;;;;;;5.03;2.20;;;;;;;5.56;100.00;102092.81;7392927;19;20893;-46
2021/12/19 04:06:56;;;;;;;7.63;2.30;;;;;;;5.59;100.00;102080.31;7397025;19;20432;-46
2021/12/19 04:09:28;;;;;;;6.83;2.00;;;;;;;5.52;100.00;102090.03;7391673;19;20388;-46
2021/12/19 04:11:57;;;;;;;6.57;3.00;;;;;;;5.58;100.00;102081.06;7398277;19;20391;-44
2021/12/19 04:14:27;;;;;;;10.03;2.07;;;;;;;5.51;100.00;102074.53;7392800;19;20453;-46
2021/12/19 04:16:56;;;;;;;5.60;2.40;;;;;;;5.47;100.00;102065.69;7394890;19;20434;-43
2021/12/19 04:19:26;;;;;;;6.57;2.20;;;;;;;5.48;100.00;102064.94;7399381;19;20395;-47
2021/12/19 04:21:56;;;;;;;6.87;2.37;;;;;;;5.53;100.00;102063.66;7405438;19;20379;-47
2021/12/19 04:24:28;;;;;;;7.60;2.30;;;;;;;5.55;100.00;102056.09;7399916;19;20722;-42
2021/12/19 04:26:58;;;;;;;6.03;1.90;;;;;;;5.52;100.00;102054.19;7403659;19;20484;-42
2021/12/19 04:29:28;;;;;;;3.60;1.93;;;;;;;5.48;100.00;102058.94;7399376;19;20447;-44
2021/12/19 04:31:58;;;;;;;6.77;2.33;;;;;;;5.47;100.00;102057.09;7405187;19;20391;-45
2021/12/19 04:34:27;;;;;;;5.73;1.60;;;;;;;5.58;100.00;102060.59;7399508;19;20459;-49
2021/12/19 04:37:03;;;;;;;4.97;1.87;;;;;;;5.61;100.00;102056.63;7401996;19;20416;-48
2021/12/19 04:39:50;;;;;;;6.97;1.77;;;;;;;5.63;100.00;102051.59;7399446;19;20443;-44
2021/12/19 04:53:19;;;;;;;6.97;2.33;;;;;;;5.55;100.00;102045.88;7404849;19;20377;-45
2021/12/19 04:59:07;;;;;;;6.60;2.60;;;;;;;5.64;100.00;102027.81;7403150;19;20945;-44
2021/12/19 05:02:01;;;;;;;6.13;2.37;;;;;;;5.65;100.00;102021.91;7397967;19;20423;-45
2021/12/19 05:15:33;;;;;;;7.40;2.30;;;;;;;5.63;100.00;102002.94;7396540;19;20422;-46
2021/12/19 05:18:06;;;;;;;10.67;3.03;;;;;;;5.70;100.00;101995.03;7402457;19;20869;-44
2021/12/19 05:20:39;;;;;;;13.40;3.83;;;;;;;5.76;100.00;101987.84;7397916;19;20479;-46
2021/12/19 05:23:17;;;;;;;11.03;3.73;;;;;;;5.73;100.00;101976.41;7403785;19;20398;-43
2021/12/19 05:25:47;;;;;;;7.43;2.40;;;;;;;5.65;100.00;101968.13;7397170;19;20969;-45
2021/12/19 05:28:19;;;;;;;8.60;3.07;;;;;;;5.65;100.00;101981.81;7401953;19;20477;-48
2021/12/19 05:30:48;;;;;;;16.43;4.53;;;;;;;5.64;100.00;101974.91;7394892;19;20429;-45
2021/12/19 05:33:18;;;;;;;13.63;3.33;;;;;;;5.76;100.00;101979.25;7403138;19;20459;-46
2021/12/19 05:36:09;;;;;;;13.23;3.83;;;;;;;5.79;100.00;101980.38;7395554;19;20418;-45
2021/12/19 05:47:02;;;;;;;17.47;3.23;;;;;;;5.76;100.00;101958.75;7399686;19;20868;-47
2021/12/19 05:49:32;;;;;;;9.87;3.10;;;;;;;5.78;100.00;101968.34;7397007;19;20381;-50
2021/12/19 05:52:01;;;;;;;15.40;6.63;;;;;;;5.85;100.00;101971.41;7402537;19;20845;-46
2021/12/19 05:54:31;;;;;;;13.60;3.00;;;;;;;5.88;100.00;101967.44;7397747;19;20447;-44
2021/12/19 05:57:00;;;;;;;7.13;2.67;;;;;;;5.87;100.00;101970.75;7400319;19;20436;-45
2021/12/19 05:59:32;;;;;;;9.33;2.03;;;;;;;5.86;100.00;101960.38;7396762;19;20396;-45
2021/12/19 06:02:02;;;;;;;18.17;3.03;;;;;;;5.88;100.00;101952.06;7402126;19;20385;-46
2021/12/19 06:04:32;;;;;;;7.77;2.03;;;;;;;5.90;100.00;101947.06;7397129;19;20402;-50
2021/12/19 06:07:02;;;;;;;17.40;2.87;;;;;;;5.91;100.00;101948.84;7400695;19;20427;-47
2021/12/19 06:09:31;;;;;;;14.10;2.50;;;;;;;5.96;100.00;101937.31;7395877;19;20459;-43
2021/12/19 06:12:01;;;;;;;11.33;2.10;;;;;;;6.00;100.00;101952.13;7401824;19;20403;-46
2021/12/19 06:14:34;;;;;;;14.77;1.97;;;;;;;5.99;100.00;101947.78;7396498;19;20395;-45
2021/12/19 06:17:04;;;;;;;9.80;2.10;;;;;;;5.94;100.00;101949.97;7399918;19;20703;-45
2021/12/19 06:19:36;;;;;;;4.50;1.93;;;;;;;6.02;100.00;101949.69;7396373;19;20463;-47
2021/12/19 06:22:07;;;;;;;7.90;2.40;;;;;;;6.05;100.00;101953.44;7402049;19;20680;-43
2021/12/19 06:24:36;;;;;;;16.30;3.20;;;;;;;6.07;100.00;101958.69;7396166;19;20375;-44
2021/12/19 06:27:06;;;;;;;10.60;2.13;;;;;;;6.06;100.00;101955.22;7400803;19;20435;-44
2021/12/19 06:29:39;;;;;;;10.13;1.90;;;;;;;5.99;100.00;101950.34;7395994;19;20392;-47
2021/12/19 06:32:09;;;;;;;8.73;2.07;;;;;;;6.03;100.00;101954.97;7401684;19;20399;-44
2021/12/19 06:34:38;;;;;;;12.27;2.17;;;;;;;6.06;100.00;101950.09;7396028;19;20857;-46
2021/12/19 06:37:10;;;;;;;7.33;2.23;;;;;;;6.03;100.00;101938.69;7399630;19;20420;-45
2021/12/19 06:39:40;;;;;;;10.13;1.77;;;;;;;6.03;100.00;101931.94;7395465;19;20536;-44
2021/12/19 06:42:12;;;;;;;6.40;1.80;;;;;;;5.98;100.00;101935.75;7400573;19;20399;-48
2021/12/19 06:44:44;;;;;;;10.47;1.80;;;;;;;6.00;100.00;101946.13;7395528;19;20490;-46
2021/12/19 06:47:13;;;;;;;10.90;1.90;;;;;;;6.01;100.00;101948.78;7399526;19;20696;-46
2021/12/19 06:49:43;;;;;;;10.53;2.00;;;;;;;6.05;100.00;101944.88;7395037;19;20889;-46
2021/12/19 06:52:13;;;;;;;9.37;1.53;;;;;;;6.07;100.00;101951.88;7405573;19;20463;-44
2021/12/19 06:54:42;;;;;;;13.70;2.30;;;;;;;6.07;100.00;101957.00;7394533;19;20409;-45
2021/12/19 06:57:12;;;;;;;7.93;1.93;;;;;;;6.01;100.00;101946.22;7399290;19;20421;-46
2021/12/19 06:59:44;;;;;;;17.77;2.20;;;;;;;6.06;100.00;101950.09;7394384;19;20412;-45
2021/12/19 07:02:15;;;;;;;14.53;2.77;;;;;;;6.10;100.00;101943.53;7400782;19;20452;-45
2021/12/19 07:04:45;;;;;;;12.30;2.20;;;;;;;6.07;100.00;101936.50;7394515;19;20415;-46
2021/12/19 07:07:15;;;;;;;10.77;1.57;;;;;;;6.04;100.00;101938.84;7399014;19;20425;-48
2021/12/19 07:09:45;;;;;;;9.60;2.30;;;;;;;6.09;100.00;101928.94;7394307;19;20413;-43
2021/12/19 07:12:14;;;;;;;12.93;1.17;;;;;;;6.03;100.00;101931.94;7400408;19;20384;-46
2021/12/19 07:14:46;;;;;;;6.20;1.57;;;;;;;6.04;100.00;101931.16;7394160;19;20466;-48
2021/12/19 07:17:16;;;;;;;12.93;2.07;;;;;;;6.04;100.00;101931.16;7398687;19;20691;-46
2021/12/19 07:19:45;;;;;;;8.73;1.43;;;;;;;6.04;100.00;101920.91;7393998;19;20419;-46
2021/12/19 07:22:15;;;;;;;9.80;2.07;;;;;;;6.03;100.00;101924.25;7400092;19;20399;-43
2021/12/19 07:24:45;;;;;;;4.43;1.40;;;;;;;6.07;100.00;101925.38;7394285;19;20441;-44
2021/12/19 07:27:15;;;;;;;13.27;2.73;;;;;;;6.14;100.00;101926.72;7398553;19;20423;-43
2021/12/19 07:29:47;;;;;;;9.50;1.80;;;;;;;6.16;100.00;101902.13;7393610;19;20418;-47
2021/12/19 07:32:17;;;;;;;7.80;1.13;;;;;;;6.13;100.00;101928.41;7399721;19;20399;-45
2021/12/19 07:34:48;;;;;;;6.90;2.57;;;;;;;6.24;100.00;101913.00;7393787;19;20463;-50
2021/12/19 07:37:18;;;;;;;10.57;1.87;;;;;;;6.19;100.00;101917.75;7397987;19;20433;-46
2021/12/19 07:39:57;;;;;;;6.87;1.83;;;;;;;6.16;100.00;101915.81;7393581;19;20873;-44
2021/12/19 07:42:27;;;;;;;13.50;2.43;;;;;;;6.20;100.00;101923.00;7399538;19;20848;-45
2021/12/19 07:44:59;;;;;;;8.13;1.77;;;;;;;6.21;100.00;101922.22;7393681;19;20422;-48
2021/12/19 07:47:28;;;;;;;7.77;1.73;;;;;;;6.22;100.00;101920.56;7397741;19;20742;-46
2021/12/19 07:49:58;;;;;;;14.00;1.90;;;;;;;6.24;100.00;101929.25;7393060;19;20421;-43
2021/12/19 07:52:27;;;;;;;10.50;2.30;;;;;;;6.29;100.00;101927.94;7400252;19;20406;-46
2021/12/19 07:54:57;;;;;;;14.90;2.00;;;;;;;6.26;100.00;101927.69;7400556;19;20755;-42
2021/12/19 07:57:26;;;;;;;8.10;1.50;;;;;;;6.25;100.00;101925.91;7407637;19;20784;-44
2021/12/19 07:59:55;;;;;;;8.30;1.87;;;;;;;6.28;100.00;101926.16;7400460;19;20484;-45
2021/12/19 08:02:27;;;;;;;7.90;1.90;;;;;;;6.24;100.00;101913.00;7406562;19;20837;-46
2021/12/19 08:04:57;;;;;;;14.57;3.03;;;;;;;6.31;100.00;101921.25;7400416;19;20404;-44
2021/12/19 08:07:26;;;;;;;18.77;1.90;;;;;;;6.41;100.00;101916.88;7404117;19;20431;-45
2021/12/19 08:10:12;;;;;;;10.23;2.83;;;;;;;6.44;100.00;101919.66;7399185;19;20417;-45
2021/12/19 08:12:40;;;;;;;9.83;3.10;;;;;;;6.41;100.00;101914.31;7406510;19;20464;-45
2021/12/19 08:15:11;;;;;;;9.90;2.07;;;;;;;6.43;100.00;101908.53;7399706;19;20419;-45
2021/12/19 08:17:48;;;;;;;13.30;3.63;;;;;;;6.37;100.00;101914.81;7403923;19;20432;-46
2021/12/19 08:20:17;;;;;;;14.60;3.23;;;;;;;6.37;100.00;101912.25;7399842;19;20420;-43
2021/12/19 08:22:49;;;;;;;20.23;3.83;;;;;;;6.37;100.00;101899.44;7406758;19;20863;-47
2021/12/19 08:25:18;;;;;;;13.20;4.13;;;;;;;6.38;100.00;101907.25;7399751;19;20487;-43
2021/12/19 08:27:48;;;;;;;18.30;3.70;;;;;;;6.37;100.00;101914.81;7404146;19;20483;-45
2021/12/19 08:30:18;;;;;;;10.20;2.90;;;;;;;6.26;100.00;101901.19;7400006;19;20403;-45
2021/12/19 08:32:52;;;;;;;8.77;2.47;;;;;;;6.26;100.00;101880.69;7405746;19;20384;-44
2021/12/19 08:35:21;;;;;;;12.63;3.37;;;;;;;6.30;100.00;101893.84;7398628;19;20434;-47
2021/12/19 08:37:51;;;;;;;7.20;1.30;;;;;;;6.23;100.00;101878.78;7403628;19;20486;-43
2021/12/19 08:40:23;;;;;;;7.87;2.40;;;;;;;6.30;100.00;101896.41;7399100;19;20711;-48
2021/12/19 08:42:53;;;;;;;11.27;2.40;;;;;;;6.38;100.00;101878.16;7405300;19;20841;-45
2021/12/19 08:45:23;;;;;;;9.13;1.70;;;;;;;6.46;100.00;101879.66;7398165;19;20796;-48
2021/12/19 08:47:58;;;;;;;9.23;2.10;;;;;;;6.44;100.00;101881.19;7403410;19;20426;-46
2021/12/19 08:50:27;;;;;;;14.87;2.50;;;;;;;6.51;100.00;101878.31;7401221;19;20447;-49
2021/12/19 08:52:57;;;;;;;8.40;1.80;;;;;;;6.65;100.00;101868.22;7404978;19;20410;-47
2021/12/19 08:55:26;;;;;;;17.37;2.67;;;;;;;6.55;100.00;101885.47;7397583;19;20491;-50
2021/12/19 08:57:56;;;;;;;13.50;2.50;;;;;;;6.55;100.00;101884.56;7402848;19;20420;-49
2021/12/19 09:00:25;;;;;;;10.00;1.93;;;;;;;6.52;100.00;101885.25;7398371;19;20489;-48
2021/12/19 09:02:57;;;;;;;8.77;1.33;;;;;;;6.49;100.00;101890.13;7404536;19;20453;-44
2021/12/19 09:05:29;;;;;;;19.17;2.03;;;;;;;6.49;100.00;101879.88;7397255;19;20502;-50
2021/12/19 09:07:59;;;;;;;12.50;2.30;;;;;;;6.55;100.00;101885.47;7402770;19;20475;-49
2021/12/19 09:10:29;;;;;;;12.23;2.00;;;;;;;6.56;100.00;101884.69;7397591;19;20464;-46
2021/12/19 09:12:58;;;;;;;10.67;1.80;;;;;;;6.61;100.00;101877.34;7404350;19;20395;-49
2021/12/19 09:15:28;;;;;;;6.70;1.60;;;;;;;6.50;100.00;101870.53;7396933;19;20416;-49
2021/12/19 09:18:00;;;;;;;7.20;1.73;;;;;;;6.45;100.00;101873.63;7402314;19;20445;-47
2021/12/19 09:20:30;;;;;;;13.17;2.00;;;;;;;6.50;100.00;101866.28;7397760;19;20405;-47
2021/12/19 09:22:59;;;;;;;13.67;2.73;;;;;;;6.59;100.00;101867.00;7403994;19;20472;-44
2021/12/19 09:25:29;;;;;;;11.17;2.67;;;;;;;6.56;100.00;101866.75;7396789;19;20762;-47
2021/12/19 09:27:58;;;;;;;16.73;2.17;;;;;;;6.60;100.00;101862.72;7402192;19;20427;-46
2021/12/19 09:30:28;;;;;;;9.87;2.03;;;;;;;6.57;100.00;101849.69;7397960;19;20419;-48
2021/12/19 09:33:00;;;;;;;15.20;2.53;;;;;;;6.63;100.00;101857.84;7403533;19;20403;-44
2021/12/19 09:35:30;;;;;;;12.63;2.13;;;;;;;6.66;100.00;101852.06;7396464;19;20742;-50
2021/12/19 09:37:59;;;;;;;9.40;2.60;;;;;;;6.58;100.00;101842.13;7401852;19;20492;-48
2021/12/19 09:40:33;;;;;;;8.30;2.03;;;;;;;6.62;100.00;101846.69;7397136;19;20438;-43
2021/12/19 09:43:04;;;;;;;10.53;2.20;;;;;;;6.65;100.00;101851.16;7403168;19;20385;-48
2021/12/19 09:45:35;;;;;;;10.00;2.37;;;;;;;6.66;100.00;101842.69;7396529;19;20868;-46
2021/12/19 09:48:07;;;;;;;11.17;2.13;;;;;;;6.66;100.00;101841.81;7401470;19;20478;-48
2021/12/19 09:50:37;;;;;;;14.60;2.30;;;;;;;6.72;100.00;101842.25;7396737;19;20420;-45
2021/12/19 09:53:06;;;;;;;13.37;2.50;;;;;;;6.72;100.00;101838.00;7406871;19;20472;-47
2021/12/19 09:55:39;;;;;;;12.70;2.17;;;;;;;6.80;100.00;101836.03;7396130;19;20413;-47
2021/12/19 09:58:08;;;;;;;12.13;2.13;;;;;;;6.84;100.00;101838.06;7401229;19;20502;-48
2021/12/19 10:00:38;;;;;;;9.67;1.90;;;;;;;6.79;100.00;101841.94;7396642;19;20417;-45
2021/12/19 10:03:12;;;;;;;14.63;2.40;;;;;;;6.83;100.00;101835.38;7402679;19;20623;-47
2021/12/19 10:05:42;;;;;;;10.73;2.50;;;;;;;6.83;100.00;101848.19;7395453;19;20872;-51
2021/12/19 10:08:11;;;;;;;12.70;2.70;;;;;;;6.88;100.00;101844.31;7400770;19;20426;-44
2021/12/19 10:10:53;;;;;;;13.67;3.00;;;;;;;6.84;100.00;101852.53;7395662;19;20440;-44
2021/12/19 10:13:32;;;;;;;9.50;2.63;;;;;;;6.87;100.00;101845.97;7402057;19;20395;-47
2021/12/19 10:16:03;;;;;;;21.73;3.30;;;;;;;6.94;100.00;101833.59;7389833;19;20427;-46
2021/12/19 10:18:35;;;;;;;13.27;2.70;;;;;;;6.95;100.00;101822.53;7400273;19;20746;-50
2021/12/19 10:21:04;;;;;;;15.60;3.33;;;;;;;6.91;100.00;101815.41;7396456;19;20714;-47
2021/12/19 10:23:36;;;;;;;16.97;1.80;;;;;;;6.84;100.00;101806.34;7401834;19;20373;-48
2021/12/19 10:26:08;;;;;;;7.63;1.70;;;;;;;6.94;100.00;101815.63;7394806;19;20401;-47
2021/12/19 10:28:53;;;;;;;9.57;2.53;;;;;;;6.99;100.00;101806.59;7399907;19;20431;-48
2021/12/19 10:31:25;;;;;;;10.20;1.90;;;;;;;6.99;100.00;101801.47;7396190;19;20404;-43
2021/12/19 10:33:57;;;;;;;11.23;2.07;;;;;;;6.94;100.00;101795.09;7401714;19;20396;-46
2021/12/19 10:36:29;;;;;;;9.90;1.97;;;;;;;6.84;100.00;101807.25;7394472;19;20427;-50
2021/12/19 10:39:19;;;;;;;14.87;2.13;;;;;;;6.86;100.00;101790.31;7399999;19;20379;-51
2021/12/19 10:41:59;;;;;;;8.87;2.10;;;;;;;6.97;100.00;101788.50;7400898;19;20661;-47
2021/12/19 10:47:26;;;;;;;17.13;2.57;;;;;;;6.96;100.00;101783.25;7399842;19;20679;-46
2021/12/19 10:49:58;;;;;;;13.20;2.30;;;;;;;6.97;100.00;101779.94;7394677;19;20414;-48
2021/12/19 10:52:36;;;;;;;19.73;3.20;;;;;;;7.07;100.00;101782.38;7401200;19;20853;-49
2021/12/19 10:55:09;;;;;;;9.63;2.40;;;;;;;7.06;100.00;101777.13;7394587;19;20506;-46
2021/12/19 10:57:40;;;;;;;19.83;2.50;;;;;;;6.89;100.00;101777.69;7399039;19;20487;-48
2021/12/19 11:00:13;;;;;;;9.03;1.93;;;;;;;6.85;100.00;101757.72;7393688;19;20420;-43
2021/12/19 11:02:44;;;;;;;9.17;2.40;;;;;;;6.89;100.00;101754.59;7400633;19;20386;-45
2021/12/19 11:05:39;;;;;;;12.47;2.77;;;;;;;6.91;100.00;101754.72;7394204;19;20496;-48
2021/12/19 11:08:10;;;;;;;14.73;3.77;;;;;;;6.98;100.00;101768.88;7399019;19;20843;-45
2021/12/19 11:10:41;;;;;;;9.77;3.53;;;;;;;7.03;100.00;101757.28;7393422;19;20705;-45
2021/12/19 11:13:11;;;;;;;8.90;2.17;;;;;;;7.00;100.00;101747.69;7400295;19;20410;-48
2021/12/19 11:15:41;;;;;;;18.13;2.70;;;;;;;6.97;100.00;101757.72;7392260;19;20442;-45
2021/12/19 11:18:11;;;;;;;17.00;2.50;;;;;;;6.94;100.00;101749.81;7398743;19;20450;-46
2021/12/19 11:20:44;;;;;;;7.53;2.40;;;;;;;6.91;100.00;101751.28;7393138;19;20432;-46
2021/12/19 11:23:13;;;;;;;15.00;3.03;;;;;;;6.92;100.00;101743.66;7400053;19;20392;-49
2021/12/19 11:25:43;;;;;;;9.20;3.90;;;;;;;6.94;100.00;101741.22;7393009;19;20674;-45
2021/12/19 11:28:13;;;;;;;17.57;3.90;;;;;;;7.02;100.00;101740.09;7395593;19;20418;-48
2021/12/19 11:30:43;;;;;;;10.13;2.03;;;;;;;7.00;100.00;101731.41;7393973;19;20413;-49
2021/12/19 11:33:20;;;;;;;12.23;2.37;;;;;;;7.07;100.00;101731.03;7399506;19;20407;-50
2021/12/19 11:35:57;;;;;;;9.67;1.97;;;;;;;7.12;100.00;101742.53;7393137;19;20409;-49
2021/12/19 11:38:27;;;;;;;14.60;2.60;;;;;;;7.09;100.00;101738.88;7398207;19;20419;-49
2021/12/19 11:40:56;;;;;;;9.20;2.40;;;;;;;7.12;100.00;101739.06;7392986;19;20410;-44
2021/12/19 11:43:38;;;;;;;9.47;2.10;;;;;;;7.15;100.00;101737.66;7398975;19;20406;-48
2021/12/19 11:46:13;;;;;;;14.77;2.27;;;;;;;7.20;100.00;101726.78;7392407;19;20426;-52
2021/12/19 11:48:43;;;;;;;10.77;2.37;;;;;;;7.14;100.00;101733.25;7402114;19;20436;-46
2021/12/19 11:51:21;;;;;;;15.33;2.30;;;;;;;7.10;100.00;101695.34;7392875;19;20417;-49
2021/12/19 11:53:51;;;;;;;8.13;2.40;;;;;;;7.12;100.00;101724.56;7399060;19;20446;-48
2021/12/19 11:56:21;;;;;;;12.50;2.97;;;;;;;7.20;100.00;101729.34;7392638;19;20414;-47
2021/12/19 11:58:52;;;;;;;7.60;2.43;;;;;;;7.22;100.00;101718.41;7399113;19;20399;-49
2021/12/19 12:01:25;;;;;;;13.47;2.90;;;;;;;7.20;100.00;101719.09;7391948;19;20890;-45
2021/12/19 12:03:59;;;;;;;13.23;2.97;;;;;;;7.22;100.00;101722.69;7398906;19;20406;-50
2021/12/19 12:06:35;;;;;;;8.97;1.90;;;;;;;7.21;100.00;101720.88;7391565;19;20433;-51
2021/12/19 12:09:26;;;;;;;10.97;1.77;;;;;;;7.19;100.00;101720.78;7398512;19;20861;-46
2021/12/19 12:12:15;;;;;;;15.83;2.40;;;;;;;7.20;100.00;101714.88;7398397;19;20878;-46
2021/12/19 12:15:00;;;;;;;14.10;2.57;;;;;;;7.18;100.00;101702.69;7393327;19;20458;-49
2021/12/19 12:17:49;;;;;;;11.07;2.90;;;;;;;7.23;100.00;101711.63;7396376;19;20423;-46
2021/12/19 12:20:24;;;;;;;12.07;2.27;;;;;;;7.22;100.00;101697.00;7392089;19;20411;-48
2021/12/19 12:23:04;;;;;;;14.43;2.57;;;;;;;7.24;100.00;101695.44;7398587;19;20861;-46
2021/12/19 12:25:41;;;;;;;14.33;2.70;;;;;;;7.24;100.00;101695.44;7391656;19;20425;-47
2021/12/19 12:28:16;;;;;;;8.73;2.10;;;;;;;7.21;100.00;101696.09;7396845;19;20897;-45
2021/12/19 12:30:47;;;;;;;14.73;2.50;;;;;;;7.24;100.00;101690.28;7392098;19;20498;-47
2021/12/19 12:33:23;;;;;;;14.63;3.10;;;;;;;7.14;100.00;101671.66;7398192;19;20459;-44